sensor_id;sensor_type;location;lat;lon;timestamp;pressure;altitude;pressure_sealevel;temperature;humidity
36600;BME280;35385;55.668;37.508;2023-02-13T00:00:23;99552.41;;;-6.52;100.00
36600;BME280;35385;55.668;37.508;2023-02-13T00:01:24;99550.47;;;-6.41;100.00
36600;BME280;35385;55.668;37.508;2023-02-13T00:02:24;99547.00;;;-6.40;100.00
36600;BME280;35385;55.668;37.508;2023-02-13T00:03:25;99546.13;;;-6.39;100.00
36600;BME280;35385;55.668;37.508;2023-02-13T00:04:25;99545.19;;;-6.35;100.00
36600;BME280;35385;55.668;37.508;2023-02-13T00:05:26;99552.00;;;-6.28;100.00
36600;BME280;35385;55.668;37.508;2023-02-13T00:06:27;99545.19;;;-6.35;100.00
36600;BME280;35385;55.668;37.508;2023-02-13T00:07:27;99538.16;;;-6.30;100.00
36600;BME280;35385;55.668;37.508;2023-02-13T00:08:28;99536.44;;;-6.31;100.00
36600;BME280;35385;55.668;37.508;2023-02-13T00:09:28;99539.22;;;-6.40;100.00
36600;BME280;35385;55.668;37.508;2023-02-13T00:10:29;99526.31;;;-6.46;100.00
36600;BME280;35385;55.668;37.508;2023-02-13T00:11:29;99486.84;;;-6.69;100.00
36600;BME280;35385;55.668;37.508;2023-02-13T00:12:30;99542.66;;;-6.39;100.00
36600;BME280;35385;55.668;37.508;2023-02-13T00:13:32;99517.53;;;-6.39;100.00
36600;BME280;35385;55.668;37.508;2023-02-13T00:14:34;99525.97;;;-6.25;100.00
36600;BME280;35385;55.668;37.508;2023-02-13T00:15:35;99460.88;;;-6.69;100.00
36600;BME280;35385;55.668;37.508;2023-02-13T00:16:35;99515.06;;;-6.48;100.00
36600;BME280;35385;55.668;37.508;2023-02-13T00:17:36;99517.75;;;-6.51;100.00
36600;BME280;35385;55.668;37.508;2023-02-13T00:18:37;99510.78;;;-6.49;100.00
36600;BME280;35385;55.668;37.508;2023-02-13T00:19:37;99515.91;;;-6.46;100.00
36600;BME280;35385;55.668;37.508;2023-02-13T00:20:39;99515.81;;;-6.40;100.00
36600;BME280;35385;55.668;37.508;2023-02-13T00:21:39;99507.81;;;-6.28;100.00
36600;BME280;35385;55.668;37.508;2023-02-13T00:22:40;99497.34;;;-6.23;100.00
36600;BME280;35385;55.668;37.508;2023-02-13T00:23:40;99501.00;;;-6.35;100.00
36600;BME280;35385;55.668;37.508;2023-02-13T00:24:41;99507.13;;;-6.39;100.00
36600;BME280;35385;55.668;37.508;2023-02-13T00:25:42;99508.97;;;-6.46;100.00
36600;BME280;35385;55.668;37.508;2023-02-13T00:26:43;99495.22;;;-6.51;100.00
36600;BME280;35385;55.668;37.508;2023-02-13T00:27:43;99499.44;;;-6.47;100.00
36600;BME280;35385;55.668;37.508;2023-02-13T00:28:44;99487.41;;;-6.49;100.00
36600;BME280;35385;55.668;37.508;2023-02-13T00:29:45;99495.75;;;-6.33;100.00
36600;BME280;35385;55.668;37.508;2023-02-13T00:30:46;99500.97;;;-6.33;100.00
36600;BME280;35385;55.668;37.508;2023-02-13T00:31:46;99482.13;;;-6.48;100.00
36600;BME280;35385;55.668;37.508;2023-02-13T00:32:47;99432.34;;;-6.74;100.00
36600;BME280;35385;55.668;37.508;2023-02-13T00:33:48;99452.88;;;-6.59;100.00
36600;BME280;35385;55.668;37.508;2023-02-13T00:34:48;99444.44;;;-6.71;100.00
36600;BME280;35385;55.668;37.508;2023-02-13T00:35:49;99506.97;;;-6.30;100.00
36600;BME280;35385;55.668;37.508;2023-02-13T00:36:49;99490.53;;;-6.32;100.00
36600;BME280;35385;55.668;37.508;2023-02-13T00:37:50;99497.69;;;-6.45;100.00
36600;BME280;35385;55.668;37.508;2023-02-13T00:38:52;99438.44;;;-6.77;100.00
36600;BME280;35385;55.668;37.508;2023-02-13T00:39:52;99492.50;;;-6.45;100.00
36600;BME280;35385;55.668;37.508;2023-02-13T00:40:52;99490.00;;;-6.49;100.00
36600;BME280;35385;55.668;37.508;2023-02-13T00:41:53;99463.31;;;-6.62;100.00
36600;BME280;35385;55.668;37.508;2023-02-13T00:42:53;99493.53;;;-6.55;100.00
36600;BME280;35385;55.668;37.508;2023-02-13T00:43:54;99474.53;;;-6.58;100.00
36600;BME280;35385;55.668;37.508;2023-02-13T00:44:54;99475.47;;;-6.62;100.00
36600;BME280;35385;55.668;37.508;2023-02-13T00:45:55;99472.94;;;-6.65;100.00
36600;BME280;35385;55.668;37.508;2023-02-13T00:46:57;99479.78;;;-6.61;100.00
36600;BME280;35385;55.668;37.508;2023-02-13T00:47:58;99471.88;;;-6.54;100.00
36600;BME280;35385;55.668;37.508;2023-02-13T00:48:59;99477.94;;;-6.55;100.00
36600;BME280;35385;55.668;37.508;2023-02-13T00:49:59;99465.81;;;-6.54;100.00
36600;BME280;35385;55.668;37.508;2023-02-13T00:51:00;99463.25;;;-6.57;100.00
36600;BME280;35385;55.668;37.508;2023-02-13T00:52:00;99398.94;;;-6.94;100.00
36600;BME280;35385;55.668;37.508;2023-02-13T00:53:01;99454.59;;;-6.58;100.00
36600;BME280;35385;55.668;37.508;2023-02-13T00:54:01;99453.75;;;-6.58;100.00
36600;BME280;35385;55.668;37.508;2023-02-13T00:55:02;99445.09;;;-6.60;100.00
36600;BME280;35385;55.668;37.508;2023-02-13T00:56:04;99455.47;;;-6.57;100.00
36600;BME280;35385;55.668;37.508;2023-02-13T00:57:04;99451.16;;;-6.58;100.00
36600;BME280;35385;55.668;37.508;2023-02-13T00:58:05;99445.16;;;-6.63;100.00
36600;BME280;35385;55.668;37.508;2023-02-13T00:59:06;99440.81;;;-6.63;100.00
36600;BME280;35385;55.668;37.508;2023-02-13T01:00:07;99439.88;;;-6.59;100.00
36600;BME280;35385;55.668;37.508;2023-02-13T01:01:08;99447.31;;;-6.36;100.00
36600;BME280;35385;55.668;37.508;2023-02-13T01:02:08;99428.41;;;-6.46;100.00
36600;BME280;35385;55.668;37.508;2023-02-13T01:03:09;99426.75;;;-6.50;100.00
36600;BME280;35385;55.668;37.508;2023-02-13T01:04:10;99456.66;;;-6.26;100.00
36600;BME280;35385;55.668;37.508;2023-02-13T01:05:10;99399.91;;;-6.50;100.00
36600;BME280;35385;55.668;37.508;2023-02-13T01:06:11;99454.06;;;-6.27;100.00
36600;BME280;35385;55.668;37.508;2023-02-13T01:07:13;99454.75;;;-6.18;100.00
36600;BME280;35385;55.668;37.508;2023-02-13T01:08:15;99453.78;;;-6.12;100.00
36600;BME280;35385;55.668;37.508;2023-02-13T01:09:16;99449.41;;;-6.09;100.00
36600;BME280;35385;55.668;37.508;2023-02-13T01:10:16;99445.78;;;-6.01;100.00
36600;BME280;35385;55.668;37.508;2023-02-13T01:11:17;99453.50;;;-5.97;100.00
36600;BME280;35385;55.668;37.508;2023-02-13T01:12:18;99451.03;;;-6.04;100.00
36600;BME280;35385;55.668;37.508;2023-02-13T01:13:19;99444.09;;;-6.04;100.00
36600;BME280;35385;55.668;37.508;2023-02-13T01:14:19;99445.63;;;-5.92;100.00
36600;BME280;35385;55.668;37.508;2023-02-13T01:15:20;99445.41;;;-5.83;100.00
36600;BME280;35385;55.668;37.508;2023-02-13T01:16:20;99438.91;;;-6.06;100.00
36600;BME280;35385;55.668;37.508;2023-02-13T01:17:21;99442.75;;;-6.25;100.00
36600;BME280;35385;55.668;37.508;2023-02-13T01:18:22;99450.56;;;-6.25;100.00
36600;BME280;35385;55.668;37.508;2023-02-13T01:19:22;99449.78;;;-6.30;100.00
36600;BME280;35385;55.668;37.508;2023-02-13T01:20:23;99454.06;;;-6.27;100.00
36600;BME280;35385;55.668;37.508;2023-02-13T01:21:24;99450.66;;;-6.31;100.00
36600;BME280;35385;55.668;37.508;2023-02-13T01:22:24;99422.31;;;-6.45;100.00
36600;BME280;35385;55.668;37.508;2023-02-13T01:23:28;99445.72;;;-6.46;100.00
36600;BME280;35385;55.668;37.508;2023-02-13T01:24:30;99436.13;;;-6.41;100.00
36600;BME280;35385;55.668;37.508;2023-02-13T01:25:32;99373.50;;;-6.75;100.00
36600;BME280;35385;55.668;37.508;2023-02-13T01:26:33;99439.56;;;-6.40;100.00
36600;BME280;35385;55.668;37.508;2023-02-13T01:27:33;99439.31;;;-6.27;100.00
36600;BME280;35385;55.668;37.508;2023-02-13T01:28:34;99367.38;;;-6.72;100.00
36600;BME280;35385;55.668;37.508;2023-02-13T01:29:34;99430.88;;;-6.38;100.00
36600;BME280;35385;55.668;37.508;2023-02-13T01:30:35;99418.19;;;-6.55;100.00
36600;BME280;35385;55.668;37.508;2023-02-13T01:31:35;99430.94;;;-6.41;100.00
36600;BME280;35385;55.668;37.508;2023-02-13T01:32:36;99411.44;;;-6.65;100.00
36600;BME280;35385;55.668;37.508;2023-02-13T01:33:37;99417.50;;;-6.64;100.00
36600;BME280;35385;55.668;37.508;2023-02-13T01:34:37;99425.13;;;-6.57;100.00
36600;BME280;35385;55.668;37.508;2023-02-13T01:35:38;99423.69;;;-6.73;100.00
36600;BME280;35385;55.668;37.508;2023-02-13T01:36:39;99417.50;;;-6.64;100.00
36600;BME280;35385;55.668;37.508;2023-02-13T01:37:40;99414.94;;;-6.67;100.00
36600;BME280;35385;55.668;37.508;2023-02-13T01:38:42;99406.41;;;-6.75;100.00
36600;BME280;35385;55.668;37.508;2023-02-13T01:39:42;99422.72;;;-6.67;100.00
36600;BME280;35385;55.668;37.508;2023-02-13T01:40:51;99413.19;;;-6.65;100.00
36600;BME280;35385;55.668;37.508;2023-02-13T01:41:52;99410.44;;;-6.59;100.00
36600;BME280;35385;55.668;37.508;2023-02-13T01:42:52;99406.84;;;-6.51;100.00
36600;BME280;35385;55.668;37.508;2023-02-13T01:43:54;99404.31;;;-6.55;100.00
36600;BME280;35385;55.668;37.508;2023-02-13T01:44:57;99350.41;;;-6.92;100.00
36600;BME280;35385;55.668;37.508;2023-02-13T01:45:58;99400.06;;;-6.59;100.00
36600;BME280;35385;55.668;37.508;2023-02-13T01:47:00;99400.34;;;-6.76;100.00
36600;BME280;35385;55.668;37.508;2023-02-13T01:48:03;99393.38;;;-6.72;100.00
36600;BME280;35385;55.668;37.508;2023-02-13T01:49:16;99337.50;;;-6.95;100.00
36600;BME280;35385;55.668;37.508;2023-02-13T01:50:34;99395.47;;;-6.45;100.00
36600;BME280;35385;55.668;37.508;2023-02-13T01:51:36;99392.06;;;-6.49;100.00
36600;BME280;35385;55.668;37.508;2023-02-13T01:52:41;99392.16;;;-6.53;100.00
36600;BME280;35385;55.668;37.508;2023-02-13T01:54:09;99390.28;;;-6.45;100.00
36600;BME280;35385;55.668;37.508;2023-02-13T01:55:12;99382.69;;;-6.57;100.00
36600;BME280;35385;55.668;37.508;2023-02-13T01:57:28;99343.16;;;-6.74;100.00
36600;BME280;35385;55.668;37.508;2023-02-13T01:58:33;99382.69;;;-6.57;100.00
36600;BME280;35385;55.668;37.508;2023-02-13T01:59:59;99376.66;;;-6.58;100.00
36600;BME280;35385;55.668;37.508;2023-02-13T02:01:07;99380.84;;;-6.49;100.00
36600;BME280;35385;55.668;37.508;2023-02-13T02:02:08;99377.13;;;-6.36;100.00
36600;BME280;35385;55.668;37.508;2023-02-13T02:03:23;99372.03;;;-6.42;100.00
36600;BME280;35385;55.668;37.508;2023-02-13T02:04:32;99364.19;;;-6.39;100.00
36600;BME280;35385;55.668;37.508;2023-02-13T02:05:35;99367.78;;;-6.48;100.00
36600;BME280;35385;55.668;37.508;2023-02-13T02:06:47;99365.19;;;-6.48;100.00
36600;BME280;35385;55.668;37.508;2023-02-13T02:07:49;99365.28;;;-6.52;100.00
36600;BME280;35385;55.668;37.508;2023-02-13T02:08:52;99371.31;;;-6.50;100.00
36600;BME280;35385;55.668;37.508;2023-02-13T02:09:58;99370.22;;;-6.38;100.00
36600;BME280;35385;55.668;37.508;2023-02-13T02:11:05;99305.88;;;-6.70;100.00
36600;BME280;35385;55.668;37.508;2023-02-13T02:12:17;99293.16;;;-6.86;100.00
36600;BME280;35385;55.668;37.508;2023-02-13T02:13:20;99362.72;;;-6.54;100.00
36600;BME280;35385;55.668;37.508;2023-02-13T02:14:21;99325.09;;;-6.79;100.00
36600;BME280;35385;55.668;37.508;2023-02-13T02:15:21;99360.06;;;-6.49;100.00
36600;BME280;35385;55.668;37.508;2023-02-13T02:16:22;99307.69;;;-6.75;100.00
36600;BME280;35385;55.668;37.508;2023-02-13T02:17:25;99359.88;;;-6.40;100.00
36600;BME280;35385;55.668;37.508;2023-02-13T02:18:26;99342.63;;;-6.46;100.00
36600;BME280;35385;55.668;37.508;2023-02-13T02:30:40;99350.28;;;-6.36;100.00
36600;BME280;35385;55.668;37.508;2023-02-13T02:34:41;99334.53;;;-6.30;100.00
36600;BME280;35385;55.668;37.508;2023-02-13T02:35:57;99333.56;;;-6.25;100.00
36600;BME280;35385;55.668;37.508;2023-02-13T02:37:22;99339.50;;;-6.18;100.00
36600;BME280;35385;55.668;37.508;2023-02-13T02:42:29;99326.28;;;-6.08;100.00
36600;BME280;35385;55.668;37.508;2023-02-13T02:45:10;99319.38;;;-6.09;100.00
36600;BME280;35385;55.668;37.508;2023-02-13T02:46:36;99314.53;;;-6.27;100.00
36600;BME280;35385;55.668;37.508;2023-02-13T02:47:58;99319.06;;;-6.35;100.00
36600;BME280;35385;55.668;37.508;2023-02-13T02:49:19;99305.38;;;-6.46;100.00
36600;BME280;35385;55.668;37.508;2023-02-13T02:50:53;99290.50;;;-6.36;100.00
36600;BME280;35385;55.668;37.508;2023-02-13T02:52:04;99309.34;;;-6.27;100.00
36600;BME280;35385;55.668;37.508;2023-02-13T02:53:29;99246.75;;;-6.59;100.00
36600;BME280;35385;55.668;37.508;2023-02-13T02:54:52;99305.59;;;-6.14;100.00
36600;BME280;35385;55.668;37.508;2023-02-13T02:56:25;99246.63;;;-6.52;100.00
36600;BME280;35385;55.668;37.508;2023-02-13T02:57:30;99313.69;;;-6.27;100.00
36600;BME280;35385;55.668;37.508;2023-02-13T02:58:59;99302.44;;;-6.28;100.00
36600;BME280;35385;55.668;37.508;2023-02-13T03:00:23;99247.53;;;-6.54;100.00
36600;BME280;35385;55.668;37.508;2023-02-13T03:01:44;99289.44;;;-6.28;100.00
36600;BME280;35385;55.668;37.508;2023-02-13T03:03:24;99297.84;;;-6.17;100.00
36600;BME280;35385;55.668;37.508;2023-02-13T03:04:50;99293.88;;;-6.34;100.00
36600;BME280;35385;55.668;37.508;2023-02-13T03:06:31;99276.72;;;-6.42;100.00
36600;BME280;35385;55.668;37.508;2023-02-13T03:07:33;99292.09;;;-6.31;100.00
36600;BME280;35385;55.668;37.508;2023-02-13T03:08:33;99293.09;;;-6.36;100.00
36600;BME280;35385;55.668;37.508;2023-02-13T03:09:57;99294.56;;;-6.25;100.00
36600;BME280;35385;55.668;37.508;2023-02-13T03:11:16;99293.63;;;-6.21;100.00
36600;BME280;35385;55.668;37.508;2023-02-13T03:12:41;99275.59;;;-6.30;100.00
36600;BME280;35385;55.668;37.508;2023-02-13T03:14:03;99279.72;;;-6.20;100.00
36600;BME280;35385;55.668;37.508;2023-02-13T03:15:07;99221.28;;;-6.42;100.00
36600;BME280;35385;55.668;37.508;2023-02-13T03:16:18;99266.69;;;-6.18;100.00
36600;BME280;35385;55.668;37.508;2023-02-13T03:17:39;99277.94;;;-6.18;100.00
36600;BME280;35385;55.668;37.508;2023-02-13T03:18:58;99232.75;;;-6.51;100.00
36600;BME280;35385;55.668;37.508;2023-02-13T03:20:27;99287.56;;;-6.21;100.00
36600;BME280;35385;55.668;37.508;2023-02-13T03:23:42;99278.13;;;-6.25;100.00
36600;BME280;35385;55.668;37.508;2023-02-13T03:25:06;99272.13;;;-6.29;100.00
36600;BME280;35385;55.668;37.508;2023-02-13T03:27:48;99269.41;;;-6.23;100.00
36600;BME280;35385;55.668;37.508;2023-02-13T03:29:17;99222.50;;;-6.60;100.00
36600;BME280;35385;55.668;37.508;2023-02-13T03:32:10;99254.84;;;-6.31;100.00
36600;BME280;35385;55.668;37.508;2023-02-13T03:34:47;99251.88;;;-6.15;100.00
36600;BME280;35385;55.668;37.508;2023-02-13T03:37:58;99188.78;;;-6.61;100.00
36600;BME280;35385;55.668;37.508;2023-02-13T03:40:49;99240.94;;;-6.29;100.00
36600;BME280;35385;55.668;37.508;2023-02-13T03:42:17;99233.16;;;-6.30;100.00
36600;BME280;35385;55.668;37.508;2023-02-13T03:43:20;99230.47;;;-6.26;100.00
36600;BME280;35385;55.668;37.508;2023-02-13T03:44:40;99227.06;;;-6.29;100.00
36600;BME280;35385;55.668;37.508;2023-02-13T03:45:45;99210.69;;;-6.33;100.00
36600;BME280;35385;55.668;37.508;2023-02-13T03:46:56;99216.66;;;-6.28;100.00
36600;BME280;35385;55.668;37.508;2023-02-13T03:48:00;99214.78;;;-6.21;100.00
36600;BME280;35385;55.668;37.508;2023-02-13T03:49:35;99207.91;;;-6.24;100.00
36600;BME280;35385;55.668;37.508;2023-02-13T03:50:58;99212.13;;;-6.20;100.00
36600;BME280;35385;55.668;37.508;2023-02-13T03:52:21;99209.38;;;-6.12;100.00
36600;BME280;35385;55.668;37.508;2023-02-13T03:53:26;99106.78;;;-6.74;100.00
36600;BME280;35385;55.668;37.508;2023-02-13T03:54:55;99200.50;;;-6.05;100.00
36600;BME280;35385;55.668;37.508;2023-02-13T03:56:14;99186.94;;;-6.18;100.00
36600;BME280;35385;55.668;37.508;2023-02-13T03:57:39;99215.31;;;-6.07;100.00
36600;BME280;35385;55.668;37.508;2023-02-13T03:59:01;99215.19;;;-6.02;100.00
36600;BME280;35385;55.668;37.508;2023-02-13T04:00:18;99163.75;;;-6.27;100.00
36600;BME280;35385;55.668;37.508;2023-02-13T04:01:26;99219.47;;;-6.00;100.00
36600;BME280;35385;55.668;37.508;2023-02-13T04:02:32;99217.47;;;-5.89;100.00
36600;BME280;35385;55.668;37.508;2023-02-13T04:05:10;99209.28;;;-5.74;100.00
36600;BME280;35385;55.668;37.508;2023-02-13T04:06:21;99143.41;;;-6.08;100.00
36600;BME280;35385;55.668;37.508;2023-02-13T04:07:25;99159.13;;;-6.14;100.00
36600;BME280;35385;55.668;37.508;2023-02-13T04:08:28;99208.56;;;-5.79;100.00
36600;BME280;35385;55.668;37.508;2023-02-13T04:09:30;99158.97;;;-6.07;100.00
36600;BME280;35385;55.668;37.508;2023-02-13T04:10:33;99207.94;;;-5.88;100.00
36600;BME280;35385;55.668;37.508;2023-02-13T04:14:18;99218.66;;;-5.66;100.00
36600;BME280;35385;55.668;37.508;2023-02-13T04:16:49;99196.63;;;-5.52;100.00
36600;BME280;35385;55.668;37.508;2023-02-13T04:17:56;99201.31;;;-5.66;100.00
36600;BME280;35385;55.668;37.508;2023-02-13T04:18:59;99182.59;;;-5.82;100.00
36600;BME280;35385;55.668;37.508;2023-02-13T04:20:01;99196.16;;;-5.69;100.00
36600;BME280;35385;55.668;37.508;2023-02-13T04:21:06;99190.81;;;-5.63;100.00
36600;BME280;35385;55.668;37.508;2023-02-13T04:22:07;99176.19;;;-5.67;100.00
36600;BME280;35385;55.668;37.508;2023-02-13T04:23:10;99131.78;;;-5.93;100.00
36600;BME280;35385;55.668;37.508;2023-02-13T04:24:11;99183.16;;;-5.69;100.00
36600;BME280;35385;55.668;37.508;2023-02-13T04:25:14;99179.63;;;-5.66;100.00
36600;BME280;35385;55.668;37.508;2023-02-13T04:26:19;99189.13;;;-5.64;100.00
36600;BME280;35385;55.668;37.508;2023-02-13T04:27:20;99157.25;;;-5.74;100.00
36600;BME280;35385;55.668;37.508;2023-02-13T04:28:21;99176.19;;;-5.67;100.00
36600;BME280;35385;55.668;37.508;2023-02-13T04:29:23;99176.09;;;-5.64;100.00
36600;BME280;35385;55.668;37.508;2023-02-13T04:30:24;99173.50;;;-5.64;100.00
36600;BME280;35385;55.668;37.508;2023-02-13T04:31:24;99110.19;;;-5.97;100.00
36600;BME280;35385;55.668;37.508;2023-02-13T04:32:25;99156.22;;;-5.66;100.00
36600;BME280;35385;55.668;37.508;2023-02-13T04:33:25;99151.28;;;-5.77;100.00
36600;BME280;35385;55.668;37.508;2023-02-13T04:34:26;99157.25;;;-5.74;100.00
36600;BME280;35385;55.668;37.508;2023-02-13T04:35:26;99113.59;;;-5.95;100.00
36600;BME280;35385;55.668;37.508;2023-02-13T04:36:27;99163.31;;;-5.73;100.00
36600;BME280;35385;55.668;37.508;2023-02-13T04:37:28;99150.22;;;-5.70;100.00
36600;BME280;35385;55.668;37.508;2023-02-13T04:38:28;99155.22;;;-5.62;100.00
36600;BME280;35385;55.668;37.508;2023-02-13T04:39:29;99170.78;;;-5.61;100.00
36600;BME280;35385;55.668;37.508;2023-02-13T04:40:29;99169.00;;;-5.59;100.00
36600;BME280;35385;55.668;37.508;2023-02-13T04:41:30;99151.97;;;-5.71;100.00
36600;BME280;35385;55.668;37.508;2023-02-13T04:42:30;99171.44;;;-5.51;100.00
36600;BME280;35385;55.668;37.508;2023-02-13T04:43:31;99153.00;;;-5.44;100.00
36600;BME280;35385;55.668;37.508;2023-02-13T04:44:31;99157.44;;;-5.47;100.00
36600;BME280;35385;55.668;37.508;2023-02-13T04:45:32;99139.34;;;-5.52;100.00
36600;BME280;35385;55.668;37.508;2023-02-13T04:46:33;99142.75;;;-5.48;100.00
36600;BME280;35385;55.668;37.508;2023-02-13T04:47:33;99146.44;;;-5.58;100.00
36600;BME280;35385;55.668;37.508;2023-02-13T04:48:34;99147.22;;;-5.55;100.00
36600;BME280;35385;55.668;37.508;2023-02-13T04:49:34;99083.16;;;-5.91;100.00
36600;BME280;35385;55.668;37.508;2023-02-13T04:50:35;99131.50;;;-5.50;100.00
36600;BME280;35385;55.668;37.508;2023-02-13T04:51:35;99128.00;;;-5.49;100.00
36600;BME280;35385;55.668;37.508;2023-02-13T04:52:36;99134.84;;;-5.47;100.00
36600;BME280;35385;55.668;37.508;2023-02-13T04:53:37;99125.03;;;-5.68;100.00
36600;BME280;35385;55.668;37.508;2023-02-13T04:54:37;99129.84;;;-5.53;100.00
36600;BME280;35385;55.668;37.508;2023-02-13T04:55:38;99130.53;;;-5.48;100.00
36600;BME280;35385;55.668;37.508;2023-02-13T04:56:38;99129.78;;;-5.51;100.00
36600;BME280;35385;55.668;37.508;2023-02-13T04:57:39;99144.28;;;-5.41;100.00
36600;BME280;35385;55.668;37.508;2023-02-13T04:58:39;99135.53;;;-5.39;100.00
36600;BME280;35385;55.668;37.508;2023-02-13T04:59:41;99130.66;;;-5.51;100.00
36600;BME280;35385;55.668;37.508;2023-02-13T05:00:41;99129.94;;;-5.57;100.00
36600;BME280;35385;55.668;37.508;2023-02-13T05:01:42;99125.44;;;-5.51;100.00
36600;BME280;35385;55.668;37.508;2023-02-13T05:02:43;99111.53;;;-5.50;100.00
36600;BME280;35385;55.668;37.508;2023-02-13T05:03:43;99118.13;;;-5.37;100.00
36600;BME280;35385;55.668;37.508;2023-02-13T05:04:44;99121.72;;;-5.42;100.00
36600;BME280;35385;55.668;37.508;2023-02-13T05:05:45;99119.81;;;-5.34;100.00
36600;BME280;35385;55.668;37.508;2023-02-13T05:06:45;99117.00;;;-5.28;100.00
36600;BME280;35385;55.668;37.508;2023-02-13T05:07:46;99112.50;;;-5.21;100.00
36600;BME280;35385;55.668;37.508;2023-02-13T05:08:47;99109.94;;;-5.23;100.00
36600;BME280;35385;55.668;37.508;2023-02-13T05:09:47;99108.19;;;-5.22;100.00
36600;BME280;35385;55.668;37.508;2023-02-13T05:10:48;99110.94;;;-5.28;100.00
36600;BME280;35385;55.668;37.508;2023-02-13T05:11:52;99121.34;;;-5.28;100.00
36600;BME280;35385;55.668;37.508;2023-02-13T05:12:53;99099.63;;;-5.27;100.00
36600;BME280;35385;55.668;37.508;2023-02-13T05:13:53;99109.00;;;-5.20;100.00
36600;BME280;35385;55.668;37.508;2023-02-13T05:14:54;99051.75;;;-5.53;100.00
36600;BME280;35385;55.668;37.508;2023-02-13T05:15:55;99093.53;;;-5.26;100.00
36600;BME280;35385;55.668;37.508;2023-02-13T05:16:55;99097.81;;;-5.24;100.00
36600;BME280;35385;55.668;37.508;2023-02-13T05:17:56;99099.44;;;-5.20;100.00
36600;BME280;35385;55.668;37.508;2023-02-13T05:18:56;99080.28;;;-5.19;100.00
36600;BME280;35385;55.668;37.508;2023-02-13T05:19:57;99091.41;;;-5.12;100.00
36600;BME280;35385;55.668;37.508;2023-02-13T05:21:00;99032.56;;;-5.49;100.00
36600;BME280;35385;55.668;37.508;2023-02-13T05:22:19;99082.97;;;-5.20;100.00
36600;BME280;35385;55.668;37.508;2023-02-13T05:23:38;99097.97;;;-4.99;100.00
36600;BME280;35385;55.668;37.508;2023-02-13T05:24:39;99095.88;;;-4.88;100.00
36600;BME280;35385;55.668;37.508;2023-02-13T05:25:40;99049.97;;;-5.20;100.00
36600;BME280;35385;55.668;37.508;2023-02-13T05:26:41;99106.66;;;-5.00;100.00
36600;BME280;35385;55.668;37.508;2023-02-13T05:27:41;99105.75;;;-4.97;100.00
36600;BME280;35385;55.668;37.508;2023-02-13T05:28:42;99096.09;;;-4.94;100.00
36600;BME280;35385;55.668;37.508;2023-02-13T05:30:01;99042.41;;;-5.29;100.00
36600;BME280;35385;55.668;37.508;2023-02-13T05:31:05;99093.16;;;-5.13;100.00
36600;BME280;35385;55.668;37.508;2023-02-13T05:32:05;99091.75;;;-5.24;100.00
36600;BME280;35385;55.668;37.508;2023-02-13T05:33:06;99085.59;;;-5.22;100.00
36600;BME280;35385;55.668;37.508;2023-02-13T05:34:06;99087.91;;;-5.11;100.00
36600;BME280;35385;55.668;37.508;2023-02-13T05:35:07;99087.59;;;-5.01;100.00
36600;BME280;35385;55.668;37.508;2023-02-13T05:36:08;99075.16;;;-4.91;100.00
36600;BME280;35385;55.668;37.508;2023-02-13T05:37:08;99029.19;;;-5.21;100.00
36600;BME280;35385;55.668;37.508;2023-02-13T05:38:09;99078.66;;;-4.92;100.00
36600;BME280;35385;55.668;37.508;2023-02-13T05:39:09;99037.97;;;-5.25;100.00
36600;BME280;35385;55.668;37.508;2023-02-13T05:40:11;99076.22;;;-4.98;100.00
36600;BME280;35385;55.668;37.508;2023-02-13T05:41:12;98995.72;;;-5.35;100.00
36600;BME280;35385;55.668;37.508;2023-02-13T05:42:13;99039.81;;;-5.00;100.00
36600;BME280;35385;55.668;37.508;2023-02-13T05:43:14;99068.97;;;-4.88;100.00
36600;BME280;35385;55.668;37.508;2023-02-13T05:44:15;99078.59;;;-4.90;100.00
36600;BME280;35385;55.668;37.508;2023-02-13T05:45:15;99080.25;;;-4.88;100.00
36600;BME280;35385;55.668;37.508;2023-02-13T05:46:16;99084.91;;;-4.97;100.00
36600;BME280;35385;55.668;37.508;2023-02-13T05:47:17;99031.31;;;-5.36;100.00
36600;BME280;35385;55.668;37.508;2023-02-13T05:48:17;99082.41;;;-5.02;100.00
36600;BME280;35385;55.668;37.508;2023-02-13T05:49:18;99064.50;;;-5.13;100.00
36600;BME280;35385;55.668;37.508;2023-02-13T05:50:18;99080.53;;;-4.97;100.00
36600;BME280;35385;55.668;37.508;2023-02-13T05:51:19;99085.38;;;-4.85;100.00
36600;BME280;35385;55.668;37.508;2023-02-13T05:52:20;99075.16;;;-4.91;100.00
36600;BME280;35385;55.668;37.508;2023-02-13T05:53:20;99092.31;;;-4.84;100.00
36600;BME280;35385;55.668;37.508;2023-02-13T05:54:21;99086.13;;;-4.80;100.00
36600;BME280;35385;55.668;37.508;2023-02-13T05:55:21;99081.81;;;-4.81;100.00
36600;BME280;35385;55.668;37.508;2023-02-13T05:56:22;99050.00;;;-4.92;100.00
36600;BME280;35385;55.668;37.508;2023-02-13T05:57:23;99093.34;;;-4.62;100.00
36600;BME280;35385;55.668;37.508;2023-02-13T05:58:24;99084.38;;;-4.51;100.00
36600;BME280;35385;55.668;37.508;2023-02-13T05:59:24;99091.13;;;-4.46;100.00
36600;BME280;35385;55.668;37.508;2023-02-13T06:00:25;99089.69;;;-4.54;100.00
36600;BME280;35385;55.668;37.508;2023-02-13T06:01:25;99076.72;;;-4.57;100.00
36600;BME280;35385;55.668;37.508;2023-02-13T06:02:26;99086.50;;;-4.64;100.00
36600;BME280;35385;55.668;37.508;2023-02-13T06:03:28;99077.25;;;-4.74;100.00
36600;BME280;35385;55.668;37.508;2023-02-13T06:04:29;99079.88;;;-4.76;100.00
36600;BME280;35385;55.668;37.508;2023-02-13T06:05:29;99094.38;;;-4.66;100.00
36600;BME280;35385;55.668;37.508;2023-02-13T06:06:30;99088.25;;;-4.65;100.00
36600;BME280;35385;55.668;37.508;2023-02-13T06:07:31;99078.00;;;-4.71;100.00
36600;BME280;35385;55.668;37.508;2023-02-13T06:08:31;99074.78;;;-4.79;100.00
36600;BME280;35385;55.668;37.508;2023-02-13T06:09:32;99074.88;;;-4.82;100.00
36600;BME280;35385;55.668;37.508;2023-02-13T06:10:32;99087.53;;;-4.70;100.00
36600;BME280;35385;55.668;37.508;2023-02-13T06:11:33;99040.63;;;-4.97;100.00